sensor_id;sensor_type;location;lat;lon;timestamp;P1;durP1;ratioP1;P2;durP2;ratioP2
13269;SDS011;6703;51.994;7.570;2022-12-07T00:01:04;0.63;;;0.43;;
13269;SDS011;6703;51.994;7.570;2022-12-07T00:03:32;0.60;;;0.60;;
13269;SDS011;6703;51.994;7.570;2022-12-07T00:06:00;0.13;;;0.13;;
13269;SDS011;6703;51.994;7.570;2022-12-07T00:08:28;0.80;;;0.80;;
13269;SDS011;6703;51.994;7.570;2022-12-07T00:11:00;0.40;;;0.30;;
13269;SDS011;6703;51.994;7.570;2022-12-07T00:13:33;0.10;;;0.10;;
13269;SDS011;6703;51.994;7.570;2022-12-07T00:16:01;0.05;;;0.05;;
13269;SDS011;6703;51.994;7.570;2022-12-07T00:18:29;0.33;;;0.33;;
13269;SDS011;6703;51.994;7.570;2022-12-07T00:21:00;0.00;;;0.00;;
13269;SDS011;6703;51.994;7.570;2022-12-07T00:23:28;0.30;;;0.30;;
13269;SDS011;6703;51.994;7.570;2022-12-07T00:26:02;0.10;;;0.10;;
13269;SDS011;6703;51.994;7.570;2022-12-07T00:28:32;3.17;;;0.50;;
13269;SDS011;6703;51.994;7.570;2022-12-07T00:31:01;0.20;;;0.20;;
13269;SDS011;6703;51.994;7.570;2022-12-07T00:33:33;0.00;;;0.00;;
13269;SDS011;6703;51.994;7.570;2022-12-07T00:36:03;0.10;;;0.10;;
13269;SDS011;6703;51.994;7.570;2022-12-07T00:38:33;0.10;;;0.10;;
13269;SDS011;6703;51.994;7.570;2022-12-07T00:41:03;0.30;;;0.30;;
13269;SDS011;6703;51.994;7.570;2022-12-07T00:43:32;0.00;;;0.00;;
13269;SDS011;6703;51.994;7.570;2022-12-07T00:46:01;0.20;;;0.20;;
13269;SDS011;6703;51.994;7.570;2022-12-07T00:48:29;0.10;;;0.10;;
13269;SDS011;6703;51.994;7.570;2022-12-07T00:50:56;0.00;;;0.00;;
13269;SDS011;6703;51.994;7.570;2022-12-07T00:53:24;0.00;;;0.00;;
13269;SDS011;6703;51.994;7.570;2022-12-07T00:55:52;0.00;;;0.00;;
13269;SDS011;6703;51.994;7.570;2022-12-07T00:58:21;1.20;;;0.40;;
13269;SDS011;6703;51.994;7.570;2022-12-07T01:00:51;0.00;;;0.00;;
13269;SDS011;6703;51.994;7.570;2022-12-07T01:03:19;0.20;;;0.20;;
13269;SDS011;6703;51.994;7.570;2022-12-07T01:05:49;0.10;;;0.10;;
13269;SDS011;6703;51.994;7.570;2022-12-07T01:08:18;0.17;;;0.17;;
13269;SDS011;6703;51.994;7.570;2022-12-07T01:10:46;0.10;;;0.10;;
13269;SDS011;6703;51.994;7.570;2022-12-07T01:13:14;0.20;;;0.20;;
13269;SDS011;6703;51.994;7.570;2022-12-07T01:15:42;0.10;;;0.10;;
13269;SDS011;6703;51.994;7.570;2022-12-07T01:18:12;0.15;;;0.15;;
13269;SDS011;6703;51.994;7.570;2022-12-07T01:20:40;0.00;;;0.00;;
13269;SDS011;6703;51.994;7.570;2022-12-07T01:23:07;0.40;;;0.40;;
13269;SDS011;6703;51.994;7.570;2022-12-07T01:25:35;0.10;;;0.10;;
13269;SDS011;6703;51.994;7.570;2022-12-07T01:28:02;0.15;;;0.15;;
13269;SDS011;6703;51.994;7.570;2022-12-07T01:30:30;0.10;;;0.10;;
13269;SDS011;6703;51.994;7.570;2022-12-07T01:32:58;0.03;;;0.03;;
13269;SDS011;6703;51.994;7.570;2022-12-07T01:35:27;0.10;;;0.10;;
13269;SDS011;6703;51.994;7.570;2022-12-07T01:37:55;1.80;;;0.50;;
13269;SDS011;6703;51.994;7.570;2022-12-07T01:40:23;0.20;;;0.20;;
13269;SDS011;6703;51.994;7.570;2022-12-07T01:42:50;0.00;;;0.00;;
13269;SDS011;6703;51.994;7.570;2022-12-07T01:48:10;0.15;;;0.15;;
13269;SDS011;6703;51.994;7.570;2022-12-07T01:50:40;0.10;;;0.10;;
13269;SDS011;6703;51.994;7.570;2022-12-07T01:53:09;0.00;;;0.00;;
13269;SDS011;6703;51.994;7.570;2022-12-07T01:55:38;0.05;;;0.05;;
13269;SDS011;6703;51.994;7.570;2022-12-07T01:58:08;0.52;;;0.32;;
13269;SDS011;6703;51.994;7.570;2022-12-07T02:00:35;0.00;;;0.00;;
13269;SDS011;6703;51.994;7.570;2022-12-07T02:03:04;0.00;;;0.00;;
13269;SDS011;6703;51.994;7.570;2022-12-07T02:05:34;0.15;;;0.15;;
13269;SDS011;6703;51.994;7.570;2022-12-07T02:08:04;0.40;;;0.40;;
13269;SDS011;6703;51.994;7.570;2022-12-07T02:10:32;1.75;;;0.45;;
13269;SDS011;6703;51.994;7.570;2022-12-07T02:13:01;0.40;;;0.40;;
13269;SDS011;6703;51.994;7.570;2022-12-07T02:15:34;0.40;;;0.40;;
13269;SDS011;6703;51.994;7.570;2022-12-07T02:18:09;0.08;;;0.08;;
13269;SDS011;6703;51.994;7.570;2022-12-07T02:20:42;0.10;;;0.10;;
13269;SDS011;6703;51.994;7.570;2022-12-07T02:26:22;0.10;;;0.10;;
13269;SDS011;6703;51.994;7.570;2022-12-07T02:29:11;0.10;;;0.10;;
13269;SDS011;6703;51.994;7.570;2022-12-07T02:31:43;0.10;;;0.10;;
13269;SDS011;6703;51.994;7.570;2022-12-07T02:34:15;2.20;;;1.00;;
13269;SDS011;6703;51.994;7.570;2022-12-07T02:37:03;0.10;;;0.10;;
13269;SDS011;6703;51.994;7.570;2022-12-07T02:39:37;0.30;;;0.30;;
13269;SDS011;6703;51.994;7.570;2022-12-07T02:42:10;0.10;;;0.10;;
13269;SDS011;6703;51.994;7.570;2022-12-07T02:44:42;0.10;;;0.10;;
13269;SDS011;6703;51.994;7.570;2022-12-07T02:47:12;0.20;;;0.20;;
13269;SDS011;6703;51.994;7.570;2022-12-07T02:49:42;0.10;;;0.10;;
13269;SDS011;6703;51.994;7.570;2022-12-07T02:52:09;0.15;;;0.15;;
13269;SDS011;6703;51.994;7.570;2022-12-07T02:54:37;0.20;;;0.20;;
13269;SDS011;6703;51.994;7.570;2022-12-07T02:57:09;1.20;;;1.10;;
13269;SDS011;6703;51.994;7.570;2022-12-07T02:59:48;0.00;;;0.00;;
13269;SDS011;6703;51.994;7.570;2022-12-07T03:02:24;0.10;;;0.10;;
13269;SDS011;6703;51.994;7.570;2022-12-07T03:05:01;0.10;;;0.10;;
13269;SDS011;6703;51.994;7.570;2022-12-07T03:07:38;0.20;;;0.20;;
13269;SDS011;6703;51.994;7.570;2022-12-07T03:10:14;0.10;;;0.10;;
13269;SDS011;6703;51.994;7.570;2022-12-07T03:12:46;0.10;;;0.10;;
13269;SDS011;6703;51.994;7.570;2022-12-07T03:15:23;1.40;;;0.80;;
13269;SDS011;6703;51.994;7.570;2022-12-07T03:17:53;0.45;;;0.45;;
13269;SDS011;6703;51.994;7.570;2022-12-07T03:20:23;0.10;;;0.10;;
13269;SDS011;6703;51.994;7.570;2022-12-07T03:22:52;0.00;;;0.00;;
13269;SDS011;6703;51.994;7.570;2022-12-07T03:25:21;0.00;;;0.00;;
13269;SDS011;6703;51.994;7.570;2022-12-07T03:27:49;0.20;;;0.20;;
13269;SDS011;6703;51.994;7.570;2022-12-07T03:30:23;0.08;;;0.08;;
13269;SDS011;6703;51.994;7.570;2022-12-07T03:32:55;0.22;;;0.22;;
13269;SDS011;6703;51.994;7.570;2022-12-07T03:35:26;0.60;;;0.60;;
13269;SDS011;6703;51.994;7.570;2022-12-07T03:37:56;0.13;;;0.13;;
13269;SDS011;6703;51.994;7.570;2022-12-07T03:40:26;0.28;;;0.28;;
13269;SDS011;6703;51.994;7.570;2022-12-07T03:42:56;0.60;;;0.50;;
13269;SDS011;6703;51.994;7.570;2022-12-07T03:45:31;0.00;;;0.00;;
13269;SDS011;6703;51.994;7.570;2022-12-07T03:48:05;2.40;;;1.50;;
13269;SDS011;6703;51.994;7.570;2022-12-07T03:50:36;0.03;;;0.03;;
13269;SDS011;6703;51.994;7.570;2022-12-07T03:53:08;0.10;;;0.10;;
13269;SDS011;6703;51.994;7.570;2022-12-07T03:55:39;0.70;;;0.70;;
13269;SDS011;6703;51.994;7.570;2022-12-07T03:58:09;0.10;;;0.10;;
13269;SDS011;6703;51.994;7.570;2022-12-07T04:00:40;0.20;;;0.20;;
13269;SDS011;6703;51.994;7.570;2022-12-07T04:03:09;0.10;;;0.10;;
13269;SDS011;6703;51.994;7.570;2022-12-07T04:05:37;0.20;;;0.20;;
13269;SDS011;6703;51.994;7.570;2022-12-07T04:08:06;0.93;;;0.93;;
13269;SDS011;6703;51.994;7.570;2022-12-07T04:10:34;0.00;;;0.00;;
13269;SDS011;6703;51.994;7.570;2022-12-07T04:13:01;0.10;;;0.10;;
13269;SDS011;6703;51.994;7.570;2022-12-07T04:15:29;0.57;;;0.57;;
13269;SDS011;6703;51.994;7.570;2022-12-07T04:17:58;0.13;;;0.13;;
13269;SDS011;6703;51.994;7.570;2022-12-07T04:20:26;0.20;;;0.20;;
13269;SDS011;6703;51.994;7.570;2022-12-07T04:22:53;0.60;;;0.60;;
13269;SDS011;6703;51.994;7.570;2022-12-07T04:25:21;0.95;;;0.57;;
13269;SDS011;6703;51.994;7.570;2022-12-07T04:27:49;0.00;;;0.00;;
13269;SDS011;6703;51.994;7.570;2022-12-07T04:30:17;0.00;;;0.00;;
13269;SDS011;6703;51.994;7.570;2022-12-07T04:32:45;0.00;;;0.00;;
13269;SDS011;6703;51.994;7.570;2022-12-07T04:35:14;0.00;;;0.00;;
13269;SDS011;6703;51.994;7.570;2022-12-07T04:37:42;0.10;;;0.10;;
13269;SDS011;6703;51.994;7.570;2022-12-07T04:40:10;0.25;;;0.25;;
13269;SDS011;6703;51.994;7.570;2022-12-07T04:42:40;0.00;;;0.00;;
13269;SDS011;6703;51.994;7.570;2022-12-07T04:45:08;0.10;;;0.10;;
13269;SDS011;6703;51.994;7.570;2022-12-07T04:47:36;0.30;;;0.20;;
13269;SDS011;6703;51.994;7.570;2022-12-07T04:50:04;0.00;;;0.00;;
13269;SDS011;6703;51.994;7.570;2022-12-07T04:52:34;0.10;;;0.10;;
13269;SDS011;6703;51.994;7.570;2022-12-07T04:55:02;0.05;;;0.05;;
13269;SDS011;6703;51.994;7.570;2022-12-07T04:57:30;0.20;;;0.20;;
13269;SDS011;6703;51.994;7.570;2022-12-07T04:59:58;0.00;;;0.00;;
13269;SDS011;6703;51.994;7.570;2022-12-07T05:02:27;0.00;;;0.00;;
13269;SDS011;6703;51.994;7.570;2022-12-07T05:04:55;0.00;;;0.00;;
13269;SDS011;6703;51.994;7.570;2022-12-07T05:07:23;0.40;;;0.40;;
13269;SDS011;6703;51.994;7.570;2022-12-07T05:09:52;0.15;;;0.15;;
13269;SDS011;6703;51.994;7.570;2022-12-07T05:12:19;0.00;;;0.00;;
13269;SDS011;6703;51.994;7.570;2022-12-07T05:14:49;0.20;;;0.20;;
13269;SDS011;6703;51.994;7.570;2022-12-07T05:17:17;0.60;;;0.60;;
13269;SDS011;6703;51.994;7.570;2022-12-07T05:19:45;0.40;;;0.40;;
13269;SDS011;6703;51.994;7.570;2022-12-07T05:22:12;0.00;;;0.00;;
13269;SDS011;6703;51.994;7.570;2022-12-07T05:24:41;0.08;;;0.08;;
13269;SDS011;6703;51.994;7.570;2022-12-07T05:27:10;0.20;;;0.20;;
13269;SDS011;6703;51.994;7.570;2022-12-07T05:29:38;0.05;;;0.05;;
13269;SDS011;6703;51.994;7.570;2022-12-07T05:32:05;0.00;;;0.00;;
13269;SDS011;6703;51.994;7.570;2022-12-07T05:34:33;0.03;;;0.03;;
13269;SDS011;6703;51.994;7.570;2022-12-07T05:37:01;0.03;;;0.03;;
13269;SDS011;6703;51.994;7.570;2022-12-07T05:39:28;0.00;;;0.00;;
13269;SDS011;6703;51.994;7.570;2022-12-07T05:41:57;0.05;;;0.05;;
13269;SDS011;6703;51.994;7.570;2022-12-07T05:44:42;0.60;;;0.60;;
13269;SDS011;6703;51.994;7.570;2022-12-07T05:47:11;0.10;;;0.10;;
13269;SDS011;6703;51.994;7.570;2022-12-07T05:49:40;0.00;;;0.00;;
13269;SDS011;6703;51.994;7.570;2022-12-07T05:52:07;0.00;;;0.00;;
13269;SDS011;6703;51.994;7.570;2022-12-07T05:54:35;0.20;;;0.20;;
13269;SDS011;6703;51.994;7.570;2022-12-07T05:57:03;0.00;;;0.00;;
13269;SDS011;6703;51.994;7.570;2022-12-07T05:59:30;0.00;;;0.00;;
13269;SDS011;6703;51.994;7.570;2022-12-07T06:01:59;0.00;;;0.00;;
13269;SDS011;6703;51.994;7.570;2022-12-07T06:04:30;0.00;;;0.00;;
13269;SDS011;6703;51.994;7.570;2022-12-07T06:06:58;0.00;;;0.00;;
13269;SDS011;6703;51.994;7.570;2022-12-07T06:09:26;1.17;;;0.47;;
13269;SDS011;6703;51.994;7.570;2022-12-07T06:11:55;11.10;;;0.70;;
13269;SDS011;6703;51.994;7.570;2022-12-07T06:14:41;0.10;;;0.10;;
13269;SDS011;6703;51.994;7.570;2022-12-07T06:17:11;0.00;;;0.00;;
13269;SDS011;6703;51.994;7.570;2022-12-07T06:19:39;0.00;;;0.00;;
13269;SDS011;6703;51.994;7.570;2022-12-07T06:22:09;0.95;;;0.93;;
13269;SDS011;6703;51.994;7.570;2022-12-07T06:24:38;0.00;;;0.00;;
13269;SDS011;6703;51.994;7.570;2022-12-07T06:27:06;0.10;;;0.10;;
13269;SDS011;6703;51.994;7.570;2022-12-07T06:29:33;0.00;;;0.00;;
13269;SDS011;6703;51.994;7.570;2022-12-07T06:32:01;0.00;;;0.00;;
13269;SDS011;6703;51.994;7.570;2022-12-07T06:34:32;0.00;;;0.00;;
13269;SDS011;6703;51.994;7.570;2022-12-07T06:37:00;0.10;;;0.10;;
13269;SDS011;6703;51.994;7.570;2022-12-07T06:39:28;0.00;;;0.00;;
13269;SDS011;6703;51.994;7.570;2022-12-07T06:41:56;0.20;;;0.20;;
13269;SDS011;6703;51.994;7.570;2022-12-07T06:44:24;0.00;;;0.00;;
13269;SDS011;6703;51.994;7.570;2022-12-07T06:46:52;0.00;;;0.00;;
13269;SDS011;6703;51.994;7.570;2022-12-07T06:49:41;0.00;;;0.00;;
13269;SDS011;6703;51.994;7.570;2022-12-07T06:52:09;0.00;;;0.00;;
13269;SDS011;6703;51.994;7.570;2022-12-07T06:54:37;1.40;;;0.80;;
13269;SDS011;6703;51.994;7.570;2022-12-07T06:57:04;1.35;;;1.05;;
13269;SDS011;6703;51.994;7.570;2022-12-07T06:59:32;0.80;;;0.80;;
13269;SDS011;6703;51.994;7.570;2022-12-07T07:02:00;0.00;;;0.00;;
13269;SDS011;6703;51.994;7.570;2022-12-07T07:04:29;0.00;;;0.00;;
13269;SDS011;6703;51.994;7.570;2022-12-07T07:06:58;0.17;;;0.17;;
13269;SDS011;6703;51.994;7.570;2022-12-07T07:09:26;0.00;;;0.00;;
13269;SDS011;6703;51.994;7.570;2022-12-07T07:11:56;0.10;;;0.10;;
13269;SDS011;6703;51.994;7.570;2022-12-07T07:14:23;0.10;;;0.10;;
13269;SDS011;6703;51.994;7.570;2022-12-07T07:16:51;0.00;;;0.00;;
13269;SDS011;6703;51.994;7.570;2022-12-07T07:19:20;0.07;;;0.07;;
13269;SDS011;6703;51.994;7.570;2022-12-07T07:21:47;0.40;;;0.40;;
13269;SDS011;6703;51.994;7.570;2022-12-07T07:24:18;0.00;;;0.00;;
13269;SDS011;6703;51.994;7.570;2022-12-07T07:26:46;0.15;;;0.15;;
13269;SDS011;6703;51.994;7.570;2022-12-07T07:29:13;0.20;;;0.20;;
13269;SDS011;6703;51.994;7.570;2022-12-07T07:31:41;0.70;;;0.70;;
13269;SDS011;6703;51.994;7.570;2022-12-07T07:34:08;0.00;;;0.00;;
13269;SDS011;6703;51.994;7.570;2022-12-07T07:36:36;0.20;;;0.20;;
13269;SDS011;6703;51.994;7.570;2022-12-07T07:39:03;0.00;;;0.00;;
13269;SDS011;6703;51.994;7.570;2022-12-07T07:41:33;0.00;;;0.00;;
13269;SDS011;6703;51.994;7.570;2022-12-07T07:44:00;1.00;;;0.80;;
13269;SDS011;6703;51.994;7.570;2022-12-07T07:46:28;0.10;;;0.10;;
13269;SDS011;6703;51.994;7.570;2022-12-07T07:48:56;0.00;;;0.00;;
13269;SDS011;6703;51.994;7.570;2022-12-07T07:51:24;0.10;;;0.10;;
13269;SDS011;6703;51.994;7.570;2022-12-07T07:53:53;0.38;;;0.38;;
13269;SDS011;6703;51.994;7.570;2022-12-07T07:56:21;0.00;;;0.00;;
13269;SDS011;6703;51.994;7.570;2022-12-07T07:58:52;0.00;;;0.00;;
13269;SDS011;6703;51.994;7.570;2022-12-07T08:01:20;0.00;;;0.00;;
13269;SDS011;6703;51.994;7.570;2022-12-07T08:03:49;0.00;;;0.00;;
13269;SDS011;6703;51.994;7.570;2022-12-07T08:06:17;0.00;;;0.00;;
13269;SDS011;6703;51.994;7.570;2022-12-07T08:08:44;0.00;;;0.00;;
13269;SDS011;6703;51.994;7.570;2022-12-07T08:11:12;0.38;;;0.13;;
13269;SDS011;6703;51.994;7.570;2022-12-07T08:13:39;2.10;;;0.70;;
13269;SDS011;6703;51.994;7.570;2022-12-07T08:16:09;0.00;;;0.00;;
13269;SDS011;6703;51.994;7.570;2022-12-07T08:18:38;0.20;;;0.20;;
13269;SDS011;6703;51.994;7.570;2022-12-07T08:21:07;0.00;;;0.00;;
13269;SDS011;6703;51.994;7.570;2022-12-07T08:23:37;0.40;;;0.40;;
13269;SDS011;6703;51.994;7.570;2022-12-07T08:26:06;1.65;;;0.38;;
13269;SDS011;6703;51.994;7.570;2022-12-07T08:28:35;0.08;;;0.08;;
13269;SDS011;6703;51.994;7.570;2022-12-07T08:31:03;0.50;;;0.50;;
13269;SDS011;6703;51.994;7.570;2022-12-07T08:33:33;0.30;;;0.30;;
13269;SDS011;6703;51.994;7.570;2022-12-07T08:36:02;0.10;;;0.10;;
13269;SDS011;6703;51.994;7.570;2022-12-07T08:38:31;0.00;;;0.00;;
13269;SDS011;6703;51.994;7.570;2022-12-07T08:40:59;0.00;;;0.00;;
13269;SDS011;6703;51.994;7.570;2022-12-07T08:43:28;0.00;;;0.00;;
13269;SDS011;6703;51.994;7.570;2022-12-07T08:45:58;0.00;;;0.00;;
13269;SDS011;6703;51.994;7.570;2022-12-07T08:48:31;0.30;;;0.30;;
13269;SDS011;6703;51.994;7.570;2022-12-07T08:51:01;0.00;;;0.00;;
13269;SDS011;6703;51.994;7.570;2022-12-07T08:53:29;0.10;;;0.10;;
13269;SDS011;6703;51.994;7.570;2022-12-07T08:55:57;0.00;;;0.00;;
13269;SDS011;6703;51.994;7.570;2022-12-07T08:58:25;0.00;;;0.00;;
13269;SDS011;6703;51.994;7.570;2022-12-07T09:00:53;0.00;;;0.00;;
13269;SDS011;6703;51.994;7.570;2022-12-07T09:03:20;0.20;;;0.20;;
13269;SDS011;6703;51.994;7.570;2022-12-07T09:05:49;0.00;;;0.00;;
13269;SDS011;6703;51.994;7.570;2022-12-07T09:08:17;0.00;;;0.00;;
13269;SDS011;6703;51.994;7.570;2022-12-07T09:10:45;0.00;;;0.00;;
13269;SDS011;6703;51.994;7.570;2022-12-07T09:13:13;0.00;;;0.00;;
13269;SDS011;6703;51.994;7.570;2022-12-07T09:15:41;0.00;;;0.00;;
13269;SDS011;6703;51.994;7.570;2022-12-07T09:18:09;0.00;;;0.00;;
13269;SDS011;6703;51.994;7.570;2022-12-07T09:20:36;0.00;;;0.00;;
13269;SDS011;6703;51.994;7.570;2022-12-07T09:23:06;0.00;;;0.00;;
13269;SDS011;6703;51.994;7.570;2022-12-07T09:25:33;0.00;;;0.00;;
13269;SDS011;6703;51.994;7.570;2022-12-07T09:28:01;0.00;;;0.00;;
13269;SDS011;6703;51.994;7.570;2022-12-07T09:30:29;0.10;;;0.10;;
13269;SDS011;6703;51.994;7.570;2022-12-07T09:32:56;0.30;;;0.17;;
13269;SDS011;6703;51.994;7.570;2022-12-07T09:35:24;0.10;;;0.10;;
13269;SDS011;6703;51.994;7.570;2022-12-07T09:37:52;0.00;;;0.00;;
13269;SDS011;6703;51.994;7.570;2022-12-07T09:40:22;0.10;;;0.10;;
13269;SDS011;6703;51.994;7.570;2022-12-07T09:42:51;0.00;;;0.00;;
13269;SDS011;6703;51.994;7.570;2022-12-07T09:45:21;1.50;;;1.30;;
13269;SDS011;6703;51.994;7.570;2022-12-07T09:47:50;0.15;;;0.15;;
13269;SDS011;6703;51.994;7.570;2022-12-07T09:50:19;2.60;;;0.40;;
13269;SDS011;6703;51.994;7.570;2022-12-07T09:52:48;0.00;;;0.00;;
13269;SDS011;6703;51.994;7.570;2022-12-07T09:55:19;0.00;;;0.00;;
13269;SDS011;6703;51.994;7.570;2022-12-07T09:57:49;3.80;;;0.60;;
13269;SDS011;6703;51.994;7.570;2022-12-07T10:00:18;0.03;;;0.03;;
13269;SDS011;6703;51.994;7.570;2022-12-07T10:02:49;0.00;;;0.00;;
13269;SDS011;6703;51.994;7.570;2022-12-07T10:05:21;0.00;;;0.00;;
13269;SDS011;6703;51.994;7.570;2022-12-07T10:07:51;0.00;;;0.00;;
13269;SDS011;6703;51.994;7.570;2022-12-07T10:10:19;0.00;;;0.00;;
13269;SDS011;6703;51.994;7.570;2022-12-07T10:12:55;0.00;;;0.00;;
13269;SDS011;6703;51.994;7.570;2022-12-07T10:18:19;0.00;;;0.00;;
13269;SDS011;6703;51.994;7.570;2022-12-07T10:20:48;0.00;;;0.00;;
13269;SDS011;6703;51.994;7.570;2022-12-07T10:23:17;0.00;;;0.00;;
13269;SDS011;6703;51.994;7.570;2022-12-07T10:25:45;0.10;;;0.10;;
13269;SDS011;6703;51.994;7.570;2022-12-07T10:28:16;0.10;;;0.10;;
13269;SDS011;6703;51.994;7.570;2022-12-07T10:30:46;0.00;;;0.00;;
13269;SDS011;6703;51.994;7.570;2022-12-07T10:33:26;1.00;;;0.40;;
13269;SDS011;6703;51.994;7.570;2022-12-07T10:35:56;0.80;;;0.60;;
13269;SDS011;6703;51.994;7.570;2022-12-07T10:38:24;0.00;;;0.00;;
13269;SDS011;6703;51.994;7.570;2022-12-07T10:41:02;0.00;;;0.00;;
13269;SDS011;6703;51.994;7.570;2022-12-07T10:43:32;0.00;;;0.00;;
13269;SDS011;6703;51.994;7.570;2022-12-07T10:49:05;0.00;;;0.00;;
13269;SDS011;6703;51.994;7.570;2022-12-07T10:51:38;0.00;;;0.00;;
13269;SDS011;6703;51.994;7.570;2022-12-07T10:54:14;0.00;;;0.00;;
13269;SDS011;6703;51.994;7.570;2022-12-07T10:56:49;0.00;;;0.00;;
13269;SDS011;6703;51.994;7.570;2022-12-07T10:59:42;0.00;;;0.00;;
13269;SDS011;6703;51.994;7.570;2022-12-07T11:02:23;0.00;;;0.00;;
13269;SDS011;6703;51.994;7.570;2022-12-07T11:04:55;0.00;;;0.00;;
13269;SDS011;6703;51.994;7.570;2022-12-07T11:07:34;0.13;;;0.13;;
13269;SDS011;6703;51.994;7.570;2022-12-07T11:10:08;0.00;;;0.00;;
13269;SDS011;6703;51.994;7.570;2022-12-07T11:12:54;0.00;;;0.00;;
13269;SDS011;6703;51.994;7.570;2022-12-07T11:15:31;0.00;;;0.00;;
13269;SDS011;6703;51.994;7.570;2022-12-07T11:18:07;0.00;;;0.00;;
13269;SDS011;6703;51.994;7.570;2022-12-07T11:20:41;0.20;;;0.20;;
13269;SDS011;6703;51.994;7.570;2022-12-07T11:23:14;0.00;;;0.00;;
13269;SDS011;6703;51.994;7.570;2022-12-07T11:25:49;0.10;;;0.10;;
13269;SDS011;6703;51.994;7.570;2022-12-07T11:28:34;0.00;;;0.00;;
13269;SDS011;6703;51.994;7.570;2022-12-07T11:31:12;0.00;;;0.00;;
13269;SDS011;6703;51.994;7.570;2022-12-07T11:33:45;0.00;;;0.00;;
13269;SDS011;6703;51.994;7.570;2022-12-07T11:36:17;0.00;;;0.00;;
13269;SDS011;6703;51.994;7.570;2022-12-07T11:38:58;0.28;;;0.28;;
13269;SDS011;6703;51.994;7.570;2022-12-07T11:41:28;0.00;;;0.00;;
13269;SDS011;6703;51.994;7.570;2022-12-07T11:43:59;0.08;;;0.08;;
13269;SDS011;6703;51.994;7.570;2022-12-07T11:46:33;1.30;;;0.40;;
13269;SDS011;6703;51.994;7.570;2022-12-07T11:49:10;0.00;;;0.00;;
13269;SDS011;6703;51.994;7.570;2022-12-07T11:51:41;1.20;;;0.60;;
13269;SDS011;6703;51.994;7.570;2022-12-07T11:54:11;7.27;;;0.90;;
13269;SDS011;6703;51.994;7.570;2022-12-07T11:56:41;3.65;;;1.40;;
13269;SDS011;6703;51.994;7.570;2022-12-07T11:59:11;9.88;;;1.58;;
13269;SDS011;6703;51.994;7.570;2022-12-07T12:01:48;5.40;;;1.27;;
13269;SDS011;6703;51.994;7.570;2022-12-07T12:04:26;3.00;;;0.93;;
13269;SDS011;6703;51.994;7.570;2022-12-07T12:07:01;7.63;;;1.80;;
13269;SDS011;6703;51.994;7.570;2022-12-07T12:09:51;8.15;;;1.45;;
13269;SDS011;6703;51.994;7.570;2022-12-07T12:12:33;6.90;;;1.55;;
13269;SDS011;6703;51.994;7.570;2022-12-07T12:15:35;8.20;;;1.33;;
13269;SDS011;6703;51.994;7.570;2022-12-07T12:18:22;4.35;;;1.10;;
13269;SDS011;6703;51.994;7.570;2022-12-07T12:20:57;1.30;;;0.50;;
13269;SDS011;6703;51.994;7.570;2022-12-07T12:23:32;6.93;;;1.13;;
13269;SDS011;6703;51.994;7.570;2022-12-07T12:26:05;7.28;;;0.95;;
13269;SDS011;6703;51.994;7.570;2022-12-07T12:28:35;6.43;;;1.37;;
13269;SDS011;6703;51.994;7.570;2022-12-07T12:31:15;5.68;;;1.10;;
13269;SDS011;6703;51.994;7.570;2022-12-07T12:33:46;8.32;;;1.20;;
13269;SDS011;6703;51.994;7.570;2022-12-07T12:36:19;5.07;;;0.95;;
13269;SDS011;6703;51.994;7.570;2022-12-07T12:39:07;4.95;;;1.30;;
13269;SDS011;6703;51.994;7.570;2022-12-07T12:41:52;7.83;;;1.40;;
13269;SDS011;6703;51.994;7.570;2022-12-07T12:44:40;6.10;;;1.10;;
13269;SDS011;6703;51.994;7.570;2022-12-07T12:50:31;9.15;;;1.17;;
13269;SDS011;6703;51.994;7.570;2022-12-07T12:53:14;6.77;;;1.50;;
13269;SDS011;6703;51.994;7.570;2022-12-07T12:55:47;3.88;;;0.98;;
13269;SDS011;6703;51.994;7.570;2022-12-07T12:58:31;6.75;;;1.20;;
13269;SDS011;6703;51.994;7.570;2022-12-07T13:04:24;8.35;;;1.08;;
13269;SDS011;6703;51.994;7.570;2022-12-07T13:06:58;12.30;;;1.50;;
13269;SDS011;6703;51.994;7.570;2022-12-07T13:09:27;7.72;;;1.38;;
13269;SDS011;6703;51.994;7.570;2022-12-07T13:12:00;6.07;;;0.98;;
13269;SDS011;6703;51.994;7.570;2022-12-07T13:14:39;5.10;;;1.20;;
13269;SDS011;6703;51.994;7.570;2022-12-07T13:20:46;3.78;;;0.80;;
13269;SDS011;6703;51.994;7.570;2022-12-07T13:23:23;8.07;;;1.73;;
13269;SDS011;6703;51.994;7.570;2022-12-07T13:28:44;2.72;;;0.80;;
13269;SDS011;6703;51.994;7.570;2022-12-07T13:31:22;4.50;;;1.48;;
13269;SDS011;6703;51.994;7.570;2022-12-07T13:33:55;6.60;;;1.00;;
13269;SDS011;6703;51.994;7.570;2022-12-07T13:36:23;8.07;;;1.08;;
13269;SDS011;6703;51.994;7.570;2022-12-07T13:38:58;9.13;;;1.00;;
13269;SDS011;6703;51.994;7.570;2022-12-07T13:41:27;11.23;;;1.30;;
13269;SDS011;6703;51.994;7.570;2022-12-07T13:44:00;6.28;;;1.23;;
13269;SDS011;6703;51.994;7.570;2022-12-07T13:46:32;8.65;;;1.08;;
13269;SDS011;6703;51.994;7.570;2022-12-07T13:49:15;10.10;;;1.20;;
13269;SDS011;6703;51.994;7.570;2022-12-07T13:51:45;12.52;;;1.40;;
13269;SDS011;6703;51.994;7.570;2022-12-07T13:54:15;6.07;;;1.50;;
13269;SDS011;6703;51.994;7.570;2022-12-07T13:56:44;10.68;;;1.52;;
13269;SDS011;6703;51.994;7.570;2022-12-07T13:59:16;9.13;;;1.48;;
13269;SDS011;6703;51.994;7.570;2022-12-07T14:01:46;6.10;;;1.43;;
13269;SDS011;6703;51.994;7.570;2022-12-07T14:04:19;3.40;;;1.08;;
13269;SDS011;6703;51.994;7.570;2022-12-07T14:06:58;5.47;;;1.23;;
13269;SDS011;6703;51.994;7.570;2022-12-07T14:09:29;5.93;;;0.73;;
13269;SDS011;6703;51.994;7.570;2022-12-07T14:11:57;12.02;;;1.20;;
13269;SDS011;6703;51.994;7.570;2022-12-07T14:14:26;7.22;;;1.30;;
13269;SDS011;6703;51.994;7.570;2022-12-07T14:17:08;6.73;;;1.00;;
13269;SDS011;6703;51.994;7.570;2022-12-07T14:19:49;4.10;;;0.93;;
13269;SDS011;6703;51.994;7.570;2022-12-07T14:22:28;8.40;;;1.47;;
13269;SDS011;6703;51.994;7.570;2022-12-07T14:25:13;9.13;;;1.80;;
13269;SDS011;6703;51.994;7.570;2022-12-07T14:27:47;8.25;;;1.30;;
13269;SDS011;6703;51.994;7.570;2022-12-07T14:30:17;3.47;;;0.80;;
13269;SDS011;6703;51.994;7.570;2022-12-07T14:32:48;3.10;;;1.10;;
13269;SDS011;6703;51.994;7.570;2022-12-07T14:35:17;7.80;;;1.08;;
13269;SDS011;6703;51.994;7.570;2022-12-07T14:37:47;5.97;;;0.95;;
13269;SDS011;6703;51.994;7.570;2022-12-07T14:40:18;10.52;;;1.20;;
13269;SDS011;6703;51.994;7.570;2022-12-07T14:42:49;7.82;;;1.25;;
13269;SDS011;6703;51.994;7.570;2022-12-07T14:45:18;5.95;;;0.90;;
13269;SDS011;6703;51.994;7.570;2022-12-07T14:47:49;6.93;;;1.30;;
13269;SDS011;6703;51.994;7.570;2022-12-07T14:50:37;5.80;;;1.03;;
13269;SDS011;6703;51.994;7.570;2022-12-07T14:53:28;1.15;;;0.45;;
13269;SDS011;6703;51.994;7.570;2022-12-07T14:56:00;5.00;;;0.70;;
13269;SDS011;6703;51.994;7.570;2022-12-07T14:58:28;2.23;;;0.70;;
13269;SDS011;6703;51.994;7.570;2022-12-07T15:00:56;4.35;;;1.08;;
13269;SDS011;6703;51.994;7.570;2022-12-07T15:03:24;6.82;;;1.33;;
13269;SDS011;6703;51.994;7.570;2022-12-07T15:05:53;4.82;;;0.80;;
13269;SDS011;6703;51.994;7.570;2022-12-07T15:08:23;12.52;;;1.15;;
13269;SDS011;6703;51.994;7.570;2022-12-07T15:10:51;7.60;;;1.20;;
13269;SDS011;6703;51.994;7.570;2022-12-07T15:13:22;5.57;;;1.37;;
13269;SDS011;6703;51.994;7.570;2022-12-07T15:16:07;8.48;;;1.33;;
13269;SDS011;6703;51.994;7.570;2022-12-07T15:18:37;3.15;;;1.10;;
13269;SDS011;6703;51.994;7.570;2022-12-07T15:21:14;6.10;;;1.00;;
13269;SDS011;6703;51.994;7.570;2022-12-07T15:23:42;5.68;;;1.30;;
13269;SDS011;6703;51.994;7.570;2022-12-07T15:26:10;10.32;;;1.25;;
13269;SDS011;6703;51.994;7.570;2022-12-07T15:28:40;6.10;;;1.20;;
13269;SDS011;6703;51.994;7.570;2022-12-07T15:31:10;11.05;;;1.35;;
13269;SDS011;6703;51.994;7.570;2022-12-07T15:33:59;8.82;;;1.60;;
13269;SDS011;6703;51.994;7.570;2022-12-07T15:36:28;6.65;;;1.35;;
13269;SDS011;6703;51.994;7.570;2022-12-07T15:38:58;5.93;;;1.33;;
13269;SDS011;6703;51.994;7.570;2022-12-07T15:41:41;8.70;;;1.50;;
13269;SDS011;6703;51.994;7.570;2022-12-07T15:44:11;5.97;;;1.65;;
13269;SDS011;6703;51.994;7.570;2022-12-07T15:46:57;7.90;;;1.55;;
13269;SDS011;6703;51.994;7.570;2022-12-07T15:49:25;9.98;;;1.80;;